Time,TemperatureF,DewpointF,PressureIn,WindDirection,WindDirectionDegrees,WindSpeedMPH,WindSpeedGustMPH,Humidity,HourlyPrecipIn,Conditions,Clouds,dailyrainin,SoftwareType,DateUTC
2013-02-19 00:02:00,57.0,34.0,30.01,NNE,14,5.0,13.0,41,0.00,,,0.00,,2013-02-19 06:02:00,
2013-02-19 00:11:00,57.0,34.0,30.01,NNE,14,5.0,13.0,41,0.00,,,0.00,,2013-02-19 06:11:00,
2013-02-19 00:21:00,56.0,33.0,30.01,NNE,22,3.0,11.0,41,0.00,,,0.00,,2013-02-19 06:21:00,
2013-02-19 00:32:00,56.0,33.0,30.02,NE,37,5.0,12.0,41,0.00,,,0.00,,2013-02-19 06:32:00,
2013-02-19 00:42:00,56.0,33.0,30.02,NE,37,5.0,12.0,41,0.00,,,0.00,,2013-02-19 06:42:00,
2013-02-19 00:52:00,56.0,33.0,30.02,NNE,28,3.0,11.0,42,0.00,,,0.00,,2013-02-19 06:52:00,
2013-02-19 01:01:00,56.0,33.0,30.02,NE,44,6.0,12.0,42,0.00,,,0.00,,2013-02-19 07:01:00,
2013-02-19 01:11:00,56.0,33.0,30.02,NE,44,6.0,12.0,42,0.00,,,0.00,,2013-02-19 07:11:00,
2013-02-19 01:22:00,55.0,32.0,30.03,NE,44,1.0,7.0,42,0.00,,,0.00,,2013-02-19 07:22:00,
2013-02-19 01:32:00,55.0,32.0,30.03,NE,44,0.0,3.0,42,0.00,,,0.00,,2013-02-19 07:32:00,
2013-02-19 01:42:00,55.0,32.0,30.03,NE,44,0.0,3.0,42,0.00,,,0.00,,2013-02-19 07:42:00,
2013-02-19 01:52:00,55.0,32.0,30.04,NE,44,2.0,7.0,41,0.00,,,0.00,,2013-02-19 07:52:00,
2013-02-19 02:02:00,55.0,31.0,30.04,NE,49,2.0,8.0,40,0.00,,,0.00,,2013-02-19 08:02:00,
2013-02-19 02:11:00,55.0,31.0,30.04,NE,49,2.0,8.0,40,0.00,,,0.00,,2013-02-19 08:11:00,
2013-02-19 02:21:00,54.0,31.0,30.04,NE,49,1.0,5.0,41,0.00,,,0.00,,2013-02-19 08:21:00,
2013-02-19 02:31:00,54.0,31.0,30.04,NE,49,0.0,5.0,42,0.00,,,0.00,,2013-02-19 08:31:00,
2013-02-19 02:42:00,54.0,31.0,30.04,NE,49,0.0,5.0,42,0.00,,,0.00,,2013-02-19 08:42:00,
2013-02-19 02:52:00,53.0,31.0,30.04,NE,49,0.0,5.0,43,0.00,,,0.00,,2013-02-19 08:52:00,
2013-02-19 03:01:00,52.0,31.0,30.03,NE,49,2.0,6.0,44,0.00,,,0.00,,2013-02-19 09:01:00,
2013-02-19 03:11:00,52.0,31.0,30.03,NE,49,2.0,6.0,44,0.00,,,0.00,,2013-02-19 09:11:00,
2013-02-19 03:21:00,51.0,30.0,30.04,NE,49,0.0,0.0,45,0.00,,,0.00,,2013-02-19 09:21:00,
2013-02-19 03:32:00,51.0,30.0,30.06,NE,49,0.0,0.0,45,0.00,,,0.00,,2013-02-19 09:32:00,
2013-02-19 03:42:00,51.0,30.0,30.06,NE,49,0.0,0.0,45,0.00,,,0.00,,2013-02-19 09:42:00,
2013-02-19 03:53:00,51.0,31.0,30.08,NE,49,0.0,4.0,47,0.00,,,0.00,,2013-02-19 09:53:00,
2013-02-19 04:01:00,51.0,31.0,30.08,NE,49,0.0,3.0,47,0.00,,,0.00,,2013-02-19 10:01:00,
2013-02-19 04:11:00,51.0,31.0,30.08,NE,49,0.0,3.0,47,0.00,,,0.00,,2013-02-19 10:11:00,
2013-02-19 04:21:00,50.0,30.0,30.08,NE,51,0.0,6.0,46,0.00,,,0.00,,2013-02-19 10:21:00,
2013-02-19 04:31:00,50.0,30.0,30.08,NE,52,0.0,3.0,46,0.00,,,0.00,,2013-02-19 10:31:00,
2013-02-19 04:41:00,50.0,30.0,30.08,NE,52,0.0,3.0,46,0.00,,,0.00,,2013-02-19 10:41:00,
2013-02-19 04:52:00,50.0,31.0,30.09,NE,52,0.0,0.0,47,0.00,,,0.00,,2013-02-19 10:52:00,
2013-02-19 05:01:00,49.0,30.0,30.09,NE,52,0.0,0.0,48,0.00,,,0.00,,2013-02-19 11:01:00,
2013-02-19 05:11:00,49.0,30.0,30.09,NE,52,0.0,0.0,48,0.00,,,0.00,,2013-02-19 11:11:00,
2013-02-19 05:21:00,49.0,31.0,30.10,NE,52,0.0,0.0,50,0.00,,,0.00,,2013-02-19 11:21:00,
2013-02-19 05:32:00,48.0,31.0,30.11,NE,52,0.0,2.0,51,0.00,,,0.00,,2013-02-19 11:32:00,
2013-02-19 05:42:00,48.0,31.0,30.11,NE,52,0.0,2.0,51,0.00,,,0.00,,2013-02-19 11:42:00,
2013-02-19 05:52:00,48.0,31.0,30.11,NE,52,0.0,0.0,52,0.00,,,0.00,,2013-02-19 11:52:00,
2013-02-19 06:01:00,47.0,31.0,30.12,NE,52,0.0,0.0,53,0.00,,,0.00,,2013-02-19 12:01:00,
2013-02-19 06:12:00,47.0,31.0,30.12,NE,52,0.0,0.0,53,0.00,,,0.00,,2013-02-19 12:12:00,
2013-02-19 06:22:00,47.0,31.0,30.13,NE,52,0.0,0.0,53,0.00,,,0.00,,2013-02-19 12:22:00,
2013-02-19 06:32:00,47.0,31.0,30.14,NE,52,0.0,0.0,54,0.00,,,0.00,,2013-02-19 12:32:00,
2013-02-19 06:42:00,47.0,31.0,30.14,NE,52,0.0,0.0,54,0.00,,,0.00,,2013-02-19 12:42:00,
2013-02-19 06:52:00,46.0,31.0,30.14,NE,52,0.0,0.0,55,0.00,,,0.00,,2013-02-19 12:52:00,
2013-02-19 07:02:00,46.0,31.0,30.14,NE,52,0.0,0.0,55,0.00,,,0.00,,2013-02-19 13:02:00,
2013-02-19 07:11:00,46.0,31.0,30.14,NE,52,0.0,0.0,55,0.00,,,0.00,,2013-02-19 13:11:00,
2013-02-19 07:22:00,45.0,31.0,30.16,NE,52,0.0,0.0,57,0.00,,,0.00,,2013-02-19 13:22:00,
2013-02-19 07:32:00,45.0,32.0,30.16,NE,52,0.0,0.0,59,0.00,,,0.00,,2013-02-19 13:32:00,
2013-02-19 07:41:00,45.0,32.0,30.16,NE,52,0.0,0.0,59,0.00,,,0.00,,2013-02-19 13:41:00,
2013-02-19 07:52:00,43.0,30.0,30.17,NE,52,0.0,0.0,61,0.00,,,0.00,,2013-02-19 13:52:00,
2013-02-19 08:01:00,43.0,31.0,30.17,NE,52,0.0,0.0,63,0.00,,,0.00,,2013-02-19 14:01:00,
2013-02-19 08:11:00,43.0,31.0,30.17,NE,52,0.0,0.0,63,0.00,,,0.00,,2013-02-19 14:11:00,
2013-02-19 08:21:00,44.0,32.0,30.18,NE,52,0.0,0.0,63,0.00,,,0.00,,2013-02-19 14:21:00,
2013-02-19 08:32:00,45.0,33.0,30.19,NE,52,0.0,0.0,63,0.00,,,0.00,,2013-02-19 14:32:00,
2013-02-19 08:42:00,45.0,33.0,30.19,NE,52,0.0,0.0,63,0.00,,,0.00,,2013-02-19 14:42:00,
2013-02-19 08:52:00,47.0,34.0,30.20,NE,52,0.0,0.0,61,0.00,,,0.00,,2013-02-19 14:52:00,
2013-02-19 09:01:00,50.0,34.0,30.21,NE,52,0.0,6.0,55,0.00,,,0.00,,2013-02-19 15:01:00,
2013-02-19 09:11:00,50.0,34.0,30.21,NE,52,0.0,6.0,55,0.00,,,0.00,,2013-02-19 15:11:00,
2013-02-19 09:21:00,51.0,33.0,30.20,East,79,1.0,8.0,49,0.00,,,0.00,,2013-02-19 15:21:00,
2013-02-19 09:31:00,52.0,33.0,30.20,East,80,3.0,7.0,48,0.00,,,0.00,,2013-02-19 15:31:00,
2013-02-19 09:42:00,52.0,33.0,30.20,East,80,3.0,7.0,48,0.00,,,0.00,,2013-02-19 15:42:00,
2013-02-19 09:52:00,53.0,33.0,30.19,East,88,1.0,10.0,46,0.00,,,0.00,,2013-02-19 15:52:00,
2013-02-19 10:01:00,54.0,33.0,30.19,ESE,111,5.0,12.0,45,0.00,,,0.00,,2013-02-19 16:01:00,
2013-02-19 10:11:00,54.0,33.0,30.19,ESE,111,5.0,12.0,45,0.00,,,0.00,,2013-02-19 16:11:00,
2013-02-19 10:21:00,55.0,32.0,30.20,East,96,7.0,15.0,41,0.00,,,0.00,,2013-02-19 16:21:00,
2013-02-19 10:32:00,55.0,31.0,30.20,ESE,106,6.0,14.0,40,0.00,,,0.00,,2013-02-19 16:32:00,
2013-02-19 10:41:00,55.0,31.0,30.20,ESE,106,6.0,14.0,40,0.00,,,0.00,,2013-02-19 16:41:00,
2013-02-19 10:52:00,56.0,31.0,30.21,ESE,111,6.0,17.0,39,0.00,,,0.00,,2013-02-19 16:52:00,
2013-02-19 11:01:00,56.0,31.0,30.21,East,86,5.0,13.0,38,0.00,,,0.00,,2013-02-19 17:01:00,
2013-02-19 11:11:00,56.0,31.0,30.21,East,86,5.0,13.0,38,0.00,,,0.00,,2013-02-19 17:11:00,
2013-02-19 11:21:00,58.0,31.0,30.21,ENE,76,6.0,12.0,35,0.00,,,0.00,,2013-02-19 17:21:00,
2013-02-19 11:32:00,58.0,31.0,30.21,ESE,121,6.0,14.0,35,0.00,,,0.00,,2013-02-19 17:32:00,
2013-02-19 11:41:00,58.0,31.0,30.21,ESE,121,6.0,14.0,35,0.00,,,0.00,,2013-02-19 17:41:00,
2013-02-19 11:52:00,59.0,31.0,30.20,ESE,123,6.0,15.0,35,0.00,,,0.00,,2013-02-19 17:52:00,
2013-02-19 12:01:00,59.0,31.0,30.20,ESE,113,6.0,14.0,34,0.00,,,0.00,,2013-02-19 18:01:00,
2013-02-19 12:11:00,59.0,31.0,30.20,ESE,113,6.0,14.0,34,0.00,,,0.00,,2013-02-19 18:11:00,
2013-02-19 12:21:00,60.0,31.0,30.19,ESE,118,6.0,15.0,33,0.00,,,0.00,,2013-02-19 18:21:00,
2013-02-19 12:31:00,60.0,31.0,30.19,ESE,118,6.0,15.0,33,0.00,,,0.00,,2013-02-19 18:31:00,
2013-02-19 12:41:00,62.0,31.0,30.17,East,97,4.0,15.0,31,0.00,,,0.00,,2013-02-19 18:41:00,
2013-02-19 12:52:00,62.0,31.0,30.17,East,97,4.0,15.0,31,0.00,,,0.00,,2013-02-19 18:52:00,
2013-02-19 13:01:00,62.0,31.0,30.17,East,97,4.0,15.0,31,0.00,,,0.00,,2013-02-19 19:01:00,
2013-02-19 13:11:00,62.0,31.0,30.17,East,97,4.0,15.0,31,0.00,,,0.00,,2013-02-19 19:11:00,
2013-02-19 13:21:00,63.0,30.0,30.15,ESE,108,6.0,14.0,29,0.00,,,0.00,,2013-02-19 19:21:00,
2013-02-19 13:31:00,63.0,29.0,30.15,ENE,74,7.0,14.0,28,0.00,,,0.00,,2013-02-19 19:31:00,
2013-02-19 13:42:00,63.0,29.0,30.15,ENE,74,7.0,14.0,28,0.00,,,0.00,,2013-02-19 19:42:00,
2013-02-19 13:52:00,64.0,29.0,30.13,East,91,8.0,12.0,27,0.00,,,0.00,,2013-02-19 19:52:00,
2013-02-19 14:01:00,64.0,29.0,30.11,East,85,6.0,14.0,27,0.00,,,0.00,,2013-02-19 20:01:00,
2013-02-19 14:12:00,64.0,29.0,30.11,East,85,6.0,14.0,27,0.00,,,0.00,,2013-02-19 20:12:00,
2013-02-19 14:21:00,65.0,29.0,30.11,ESE,116,5.0,15.0,26,0.00,,,0.00,,2013-02-19 20:21:00,
2013-02-19 14:32:00,64.0,29.0,30.10,SE,125,5.0,15.0,27,0.00,,,0.00,,2013-02-19 20:32:00,
2013-02-19 14:42:00,64.0,29.0,30.10,SE,125,5.0,15.0,27,0.00,,,0.00,,2013-02-19 20:42:00,
2013-02-19 14:52:00,65.0,30.0,30.09,ESE,111,5.0,12.0,27,0.00,,,0.00,,2013-02-19 20:52:00,
2013-02-19 15:02:00,65.0,28.0,30.08,ESE,107,5.0,12.0,25,0.00,,,0.00,,2013-02-19 21:02:00,
2013-02-19 15:11:00,65.0,28.0,30.08,ESE,107,5.0,12.0,25,0.00,,,0.00,,2013-02-19 21:11:00,
2013-02-19 15:21:00,66.0,29.0,30.08,SE,129,6.0,17.0,25,0.00,,,0.00,,2013-02-19 21:21:00,
2013-02-19 15:32:00,66.0,29.0,30.07,SE,130,5.0,14.0,25,0.00,,,0.00,,2013-02-19 21:32:00,
2013-02-19 15:42:00,66.0,29.0,30.07,SE,130,5.0,14.0,25,0.00,,,0.00,,2013-02-19 21:42:00,
2013-02-19 15:52:00,66.0,28.0,30.06,East,84,7.0,16.0,24,0.00,,,0.00,,2013-02-19 21:52:00,
2013-02-19 16:02:00,66.0,29.0,30.05,ESE,113,6.0,15.0,25,0.00,,,0.00,,2013-02-19 22:02:00,
2013-02-19 16:11:00,66.0,29.0,30.05,ESE,113,6.0,15.0,25,0.00,,,0.00,,2013-02-19 22:11:00,
2013-02-19 16:21:00,66.0,29.0,30.05,ESE,113,4.0,15.0,25,0.00,,,0.00,,2013-02-19 22:21:00,
2013-02-19 16:32:00,65.0,26.0,30.04,ESE,115,5.0,14.0,23,0.00,,,0.00,,2013-02-19 22:32:00,
2013-02-19 16:41:00,65.0,26.0,30.04,ESE,115,5.0,14.0,23,0.00,,,0.00,,2013-02-19 22:41:00,
2013-02-19 16:52:00,65.0,26.0,30.04,ESE,119,5.0,12.0,23,0.00,,,0.00,,2013-02-19 22:52:00,
2013-02-19 17:01:00,65.0,26.0,30.04,ESE,122,5.0,12.0,23,0.00,,,0.00,,2013-02-19 23:01:00,
2013-02-19 17:11:00,65.0,26.0,30.04,ESE,122,5.0,12.0,23,0.00,,,0.00,,2013-02-19 23:11:00,
2013-02-19 17:21:00,64.0,26.0,30.04,SE,138,4.0,12.0,24,0.00,,,0.00,,2013-02-19 23:21:00,
2013-02-19 17:32:00,64.0,28.0,30.04,ESE,123,5.0,9.0,26,0.00,,,0.00,,2013-02-19 23:32:00,
2013-02-19 17:41:00,64.0,28.0,30.04,ESE,123,5.0,9.0,26,0.00,,,0.00,,2013-02-19 23:41:00,
2013-02-19 17:52:00,64.0,27.0,30.04,SSE,153,6.0,14.0,25,0.00,,,0.00,,2013-02-19 23:52:00,
2013-02-19 18:01:00,64.0,28.0,30.04,SE,131,6.0,13.0,26,0.00,,,0.00,,2013-02-20 00:01:00,
2013-02-19 18:11:00,64.0,28.0,30.04,SE,131,6.0,13.0,26,0.00,,,0.00,,2013-02-20 00:11:00,
2013-02-19 18:21:00,63.0,29.0,30.04,SE,125,4.0,11.0,27,0.00,,,0.00,,2013-02-20 00:21:00,
2013-02-19 18:31:00,63.0,29.0,30.04,ESE,123,5.0,12.0,28,0.00,,,0.00,,2013-02-20 00:31:00,
2013-02-19 18:42:00,63.0,29.0,30.04,ESE,123,5.0,12.0,28,0.00,,,0.00,,2013-02-20 00:42:00,
2013-02-19 18:52:00,62.0,29.0,30.04,SE,144,3.0,12.0,29,0.00,,,0.00,,2013-02-20 00:52:00,
2013-02-19 19:02:00,62.0,30.0,30.04,ESE,119,2.0,11.0,30,0.00,,,0.00,,2013-02-20 01:02:00,
2013-02-19 19:11:00,62.0,30.0,30.04,ESE,119,2.0,11.0,30,0.00,,,0.00,,2013-02-20 01:11:00,
2013-02-19 19:21:00,62.0,31.0,30.04,SE,127,6.0,12.0,31,0.00,,,0.00,,2013-02-20 01:21:00,
2013-02-19 19:32:00,61.0,31.0,30.04,ESE,111,4.0,14.0,32,0.00,,,0.00,,2013-02-20 01:32:00,
2013-02-19 19:42:00,61.0,31.0,30.04,ESE,111,4.0,14.0,32,0.00,,,0.00,,2013-02-20 01:42:00,
2013-02-19 19:52:00,61.0,32.0,30.05,SE,128,6.0,12.0,33,0.00,,,0.00,,2013-02-20 01:52:00,
2013-02-19 20:01:00,61.0,32.0,30.04,ESE,123,2.0,11.0,34,0.00,,,0.00,,2013-02-20 02:01:00,
2013-02-19 20:11:00,61.0,32.0,30.04,ESE,123,2.0,11.0,34,0.00,,,0.00,,2013-02-20 02:11:00,
2013-02-19 20:21:00,61.0,33.0,30.05,SSE,152,2.0,10.0,35,0.00,,,0.00,,2013-02-20 02:21:00,
2013-02-19 20:31:00,60.0,33.0,30.04,SE,126,5.0,12.0,36,0.00,,,0.00,,2013-02-20 02:31:00,
2013-02-19 20:42:00,60.0,33.0,30.04,SE,126,5.0,12.0,36,0.00,,,0.00,,2013-02-20 02:42:00,
2013-02-19 20:52:00,60.0,33.0,30.03,SSE,152,5.0,13.0,36,0.00,,,0.00,,2013-02-20 02:52:00,
2013-02-19 21:01:00,60.0,33.0,30.04,SE,130,4.0,12.0,36,0.00,,,0.00,,2013-02-20 03:01:00,
2013-02-19 21:12:00,60.0,33.0,30.04,SE,130,4.0,12.0,36,0.00,,,0.00,,2013-02-20 03:12:00,
2013-02-19 21:22:00,60.0,33.0,30.04,SE,130,4.0,12.0,36,0.00,,,0.00,,2013-02-20 03:22:00,
2013-02-19 21:32:00,60.0,33.0,30.04,ESE,123,3.0,10.0,36,0.00,,,0.00,,2013-02-20 03:32:00,
2013-02-19 21:41:00,60.0,33.0,30.04,ESE,123,3.0,10.0,36,0.00,,,0.00,,2013-02-20 03:41:00,
2013-02-19 21:52:00,60.0,33.0,30.04,SE,130,5.0,11.0,36,0.00,,,0.00,,2013-02-20 03:52:00,
2013-02-19 22:01:00,59.0,32.0,30.03,ESE,123,3.0,14.0,36,0.00,,,0.00,,2013-02-20 04:01:00,
2013-02-19 22:11:00,59.0,32.0,30.03,ESE,123,3.0,14.0,36,0.00,,,0.00,,2013-02-20 04:11:00,
2013-02-19 22:21:00,59.0,33.0,30.03,ESE,123,4.0,13.0,37,0.00,,,0.00,,2013-02-20 04:21:00,
2013-02-19 22:31:00,59.0,33.0,30.03,ESE,123,4.0,13.0,37,0.00,,,0.00,,2013-02-20 04:31:00,
2013-02-19 22:41:00,59.0,33.0,30.03,ESE,123,4.0,13.0,37,0.00,,,0.00,,2013-02-20 04:41:00,
2013-02-19 22:52:00,59.0,33.0,30.02,SSE,165,5.0,13.0,37,0.00,,,0.00,,2013-02-20 04:52:00,
2013-02-19 23:02:00,59.0,33.0,30.03,SE,128,5.0,12.0,38,0.00,,,0.00,,2013-02-20 05:02:00,
2013-02-19 23:12:00,59.0,33.0,30.03,SE,128,5.0,12.0,38,0.00,,,0.00,,2013-02-20 05:12:00,
2013-02-19 23:22:00,59.0,34.0,30.04,SE,133,5.0,12.0,39,0.00,,,0.00,,2013-02-20 05:22:00,
2013-02-19 23:32:00,59.0,34.0,30.04,SSE,149,5.0,10.0,39,0.00,,,0.00,,2013-02-20 05:32:00,
2013-02-19 23:43:00,59.0,34.0,30.04,SSE,149,5.0,10.0,39,0.00,,,0.00,,2013-02-20 05:43:00,
2013-02-19 23:52:00,58.0,34.0,30.04,SE,132,7.0,16.0,40,0.00,,,0.00,,2013-02-20 05:52:00,